Time;durP1;ratioP1;P1;durP2;ratioP2;P2;SDS_P1;SDS_P2;PMS_P1;PMS_P2;Temp;Humidity;BMP_temperature;BMP_pressure;BME280_temperature;BME280_humidity;BME280_pressure;Samples;Min_cycle;Max_cycle;Signal;HPM_P1;HPM_P2
2022/11/19 00:02:33;;;;;;;0.10;0.10;;;;;;;7.92;57.68;97032.81;8445206;28;20287;-75
2022/11/19 00:06:36;;;;;;;0.20;0.20;;;;;;;8.13;56.75;97041.25;8445235;28;20234;-75
2022/11/19 00:10:40;;;;;;;0.10;0.10;;;;;;;7.80;55.51;97041.97;8445032;28;20241;-75
2022/11/19 00:14:43;;;;;;;0.10;0.10;;;;;;;7.56;56.13;97044.81;8448322;28;20230;-75
2022/11/19 00:18:46;;;;;;;0.10;0.10;;;;;;;7.41;58.40;97045.53;8450850;28;20235;-75
2022/11/19 00:22:51;;;;;;;0.10;0.10;;;;;;;7.98;56.78;97045.44;8450714;28;20234;-75
2022/11/19 00:26:55;;;;;;;0.10;0.10;;;;;;;7.57;56.73;97049.06;8450136;28;20230;-75
2022/11/19 00:31:01;;;;;;;0.10;0.10;;;;;;;7.91;56.43;97046.63;8450691;28;20229;-75
2022/11/19 00:35:05;;;;;;;0.10;0.10;;;;;;;7.74;56.44;97053.41;8450541;28;20226;-75
2022/11/19 00:39:08;;;;;;;0.10;0.10;;;;;;;7.95;55.65;97067.03;8450605;28;20461;-75
2022/11/19 00:47:32;;;;;;;0.10;0.10;;;;;;;7.82;55.53;97064.22;8429702;28;20226;-75
2022/11/19 00:51:35;;;;;;;0.20;0.20;;;;;;;7.66;56.05;97063.25;8433421;28;20223;-75
2022/11/19 00:55:38;;;;;;;0.10;0.10;;;;;;;7.81;55.68;97062.53;8439220;28;20279;-75
2022/11/19 00:59:42;;;;;;;0.10;0.10;;;;;;;7.89;55.28;97074.22;8432903;28;20230;-75
2022/11/19 01:03:45;;;;;;;0.10;0.10;;;;;;;7.51;56.32;97075.09;8432953;28;20234;-75
2022/11/19 01:07:48;;;;;;;0.10;0.10;;;;;;;7.82;55.73;97092.56;8432713;28;20234;-75
2022/11/19 01:11:51;;;;;;;0.10;0.10;;;;;;;7.79;55.62;97099.59;8449268;28;20238;-75
2022/11/19 01:15:55;;;;;;;0.10;0.10;;;;;;;7.88;55.09;97091.44;8449058;28;20672;-75
2022/11/19 01:19:58;;;;;;;0.10;0.10;;;;;;;7.82;55.47;97104.59;8432273;28;20234;-76
2022/11/19 01:24:02;;;;;;;0.10;0.10;;;;;;;7.79;55.29;97104.75;8431850;28;20241;-75
2022/11/19 01:28:05;;;;;;;0.10;0.10;;;;;;;7.74;55.74;97104.97;8432038;28;20453;-75
2022/11/19 01:32:09;;;;;;;0.10;0.10;;;;;;;7.60;55.97;97105.59;8432459;28;20229;-75
2022/11/19 01:36:13;;;;;;;0.10;0.10;;;;;;;7.61;55.12;97107.25;8432342;28;20234;-75
2022/11/19 01:40:16;;;;;;;0.20;0.20;;;;;;;7.60;55.82;97107.34;8432088;28;20226;-75
2022/11/19 01:44:55;;;;;;;0.10;0.10;;;;;;;7.43;55.76;97105.56;8444249;28;20229;-75
2022/11/19 01:49:02;;;;;;;0.10;0.10;;;;;;;7.55;56.13;97096.41;8448425;28;20218;-75
2022/11/19 01:53:07;;;;;;;0.20;0.20;;;;;;;7.32;56.22;97095.72;8448546;28;20230;-75
2022/11/19 01:57:13;;;;;;;0.10;0.10;;;;;;;7.26;56.24;97100.31;8448561;28;20380;-75
2022/11/19 02:01:16;;;;;;;0.10;0.10;;;;;;;7.19;57.36;97113.44;8448442;28;20321;-75
2022/11/19 02:05:21;;;;;;;0.10;0.10;;;;;;;7.27;56.28;97115.69;8439718;28;20325;-75
2022/11/19 02:09:24;;;;;;;0.20;0.20;;;;;;;7.03;57.76;97108.16;8431204;28;20236;-75
2022/11/19 02:13:31;;;;;;;0.10;0.10;;;;;;;7.35;57.07;97113.63;8436004;28;20226;-75
2022/11/19 02:17:49;;;;;;;0.10;0.10;;;;;;;7.26;56.46;97111.47;8448021;28;20499;-75
2022/11/19 02:22:00;;;;;;;0.10;0.10;;;;;;;7.52;56.23;97123.16;8447772;28;20225;-75
2022/11/19 02:26:27;;;;;;;0.10;0.10;;;;;;;7.42;56.29;97124.47;8447591;28;20230;-75
2022/11/19 02:30:34;;;;;;;0.10;0.10;;;;;;;7.43;56.46;97114.09;8447541;28;20244;-75
2022/11/19 02:34:41;;;;;;;0.10;0.10;;;;;;;7.17;56.78;97104.97;8447388;28;20241;-75
2022/11/19 02:38:49;;;;;;;0.10;0.10;;;;;;;7.43;56.58;97118.44;8446906;28;20549;-75
2022/11/19 02:42:58;;;;;;;0.10;0.10;;;;;;;7.30;56.30;97122.47;8447379;28;20249;-75
2022/11/19 02:47:04;;;;;;;0.10;0.10;;;;;;;7.40;57.05;97116.81;8446670;28;20230;-75
2022/11/19 02:51:08;;;;;;;0.10;0.10;;;;;;;7.46;56.32;97126.00;8447165;28;20276;-75
2022/11/19 02:55:12;;;;;;;0.10;0.10;;;;;;;7.46;56.73;97130.31;8446912;28;20222;-75
2022/11/19 03:08:00;;;;;;;0.10;0.10;;;;;;;7.13;57.22;97124.03;8446314;28;20230;-75
2022/11/19 03:12:11;;;;;;;0.10;0.10;;;;;;;7.07;57.49;97134.59;8446760;28;20237;-75
2022/11/19 03:20:46;;;;;;;0.10;0.10;;;;;;;7.35;56.55;97131.66;8446747;28;20230;-75
2022/11/19 03:24:53;;;;;;;0.10;0.10;;;;;;;7.24;56.87;97144.16;8446379;28;20249;-75
2022/11/19 03:28:56;;;;;;;0.10;0.10;;;;;;;7.27;57.16;97153.50;8446293;28;20226;-75
2022/11/19 03:33:02;;;;;;;0.10;0.10;;;;;;;7.20;57.24;97158.09;8446429;28;20529;-75
2022/11/19 03:37:07;;;;;;;0.10;0.10;;;;;;;7.31;56.48;97162.75;8446473;28;20236;-75
2022/11/19 03:41:11;;;;;;;0.10;0.10;;;;;;;7.18;57.66;97157.31;8446164;28;20234;-75
2022/11/19 03:45:17;;;;;;;0.10;0.10;;;;;;;7.23;56.84;97175.97;8446301;28;20283;-75
2022/11/19 03:49:24;;;;;;;0.10;0.10;;;;;;;7.18;56.99;97171.03;8449388;28;20295;-75
2022/11/19 03:53:29;;;;;;;0.10;0.10;;;;;;;7.28;56.36;97176.59;8452185;28;20291;-75
2022/11/19 03:57:33;;;;;;;0.10;0.10;;;;;;;7.25;56.68;97176.72;8452463;28;20272;-75
2022/11/19 04:01:36;;;;;;;0.10;0.10;;;;;;;7.29;56.38;97172.28;8452241;28;20253;-75
2022/11/19 04:05:39;;;;;;;0.10;0.10;;;;;;;7.02;56.57;97172.56;8452157;28;20300;-76
2022/11/19 04:09:43;;;;;;;0.10;0.10;;;;;;;7.02;57.04;97173.41;8452137;28;20291;-75
2022/11/19 04:13:46;;;;;;;0.10;0.10;;;;;;;7.06;56.79;97181.84;8451684;28;20234;-75
2022/11/19 04:17:49;;;;;;;0.10;0.10;;;;;;;7.01;56.86;97191.50;8451965;28;20234;-75
2022/11/19 04:21:52;;;;;;;0.10;0.10;;;;;;;7.19;56.63;97189.88;8451849;28;20291;-75
2022/11/19 04:25:57;;;;;;;0.10;0.10;;;;;;;7.06;57.04;97189.56;8451235;28;20421;-75
2022/11/19 04:30:00;;;;;;;0.10;0.10;;;;;;;6.98;57.54;97186.47;8451587;28;20230;-75
2022/11/19 04:34:02;;;;;;;0.10;0.10;;;;;;;6.94;57.50;97185.78;8451497;28;20249;-75
2022/11/19 04:38:05;;;;;;;0.10;0.10;;;;;;;7.05;56.82;97188.72;8451323;28;20230;-75
2022/11/19 04:42:10;;;;;;;0.20;0.20;;;;;;;6.96;57.13;97193.44;8451126;28;20236;-75
2022/11/19 04:46:13;;;;;;;0.10;0.10;;;;;;;6.87;57.94;97191.25;8450920;28;20222;-75
2022/11/19 04:50:16;;;;;;;0.10;0.10;;;;;;;7.07;57.32;97195.56;8451044;28;20229;-75
2022/11/19 04:54:18;;;;;;;0.10;0.10;;;;;;;7.01;56.67;97194.09;8450308;28;20267;-76
2022/11/19 04:58:23;;;;;;;0.10;0.10;;;;;;;6.77;57.42;97193.38;8450609;28;20241;-75
2022/11/19 05:02:26;;;;;;;0.10;0.10;;;;;;;6.91;57.24;97193.66;8450433;28;20447;-75
2022/11/19 05:06:28;;;;;;;0.10;0.10;;;;;;;6.93;57.65;97190.97;8450330;28;20237;-75
2022/11/19 05:10:31;;;;;;;0.10;0.10;;;;;;;6.74;58.14;97186.63;8450154;28;20247;-76
2022/11/19 05:14:37;;;;;;;0.10;0.10;;;;;;;6.66;58.70;97196.38;8450046;28;20237;-75
2022/11/19 05:18:40;;;;;;;0.10;0.10;;;;;;;6.69;57.39;97180.00;8449912;28;20281;-75
2022/11/19 05:22:43;;;;;;;0.10;0.10;;;;;;;6.81;58.56;97184.63;8449654;28;20463;-75
2022/11/19 05:26:45;;;;;;;0.10;0.10;;;;;;;6.77;57.50;97185.66;8449829;28;20225;-75
2022/11/19 05:30:53;;;;;;;0.10;0.10;;;;;;;7.01;57.76;97194.09;8449628;28;20232;-75
2022/11/19 05:34:56;;;;;;;0.10;0.10;;;;;;;6.78;57.99;97185.59;8449011;28;20268;-76
2022/11/19 05:38:59;;;;;;;0.10;0.10;;;;;;;6.76;57.81;97187.38;8449072;28;20234;-75
2022/11/19 05:43:06;;;;;;;0.20;0.20;;;;;;;6.93;57.42;97184.13;8448920;28;20458;-77
2022/11/19 05:47:11;;;;;;;0.10;0.10;;;;;;;6.68;58.38;97173.16;8449061;28;20466;-75
2022/11/19 05:51:14;;;;;;;0.20;0.20;;;;;;;7.03;58.19;97181.97;8448957;28;20226;-75
2022/11/19 05:55:16;;;;;;;0.10;0.10;;;;;;;6.97;57.67;97195.94;8448752;28;20263;-75
2022/11/19 05:59:19;;;;;;;0.10;0.10;;;;;;;7.07;58.01;97209.28;8448748;28;20230;-75
2022/11/19 06:03:24;;;;;;;0.10;0.10;;;;;;;7.03;58.01;97197.44;8448646;28;20241;-75
2022/11/19 06:07:27;;;;;;;0.10;0.10;;;;;;;7.05;58.44;97200.78;8448464;28;20307;-75
2022/11/19 06:11:49;;;;;;;0.10;0.10;;;;;;;7.07;57.94;97201.53;8447488;28;20233;-75
2022/11/19 06:15:53;;;;;;;0.10;0.10;;;;;;;7.06;57.90;97197.28;8448207;28;20240;-75
2022/11/19 06:19:56;;;;;;;0.10;0.10;;;;;;;7.01;58.50;97201.81;8447795;28;20293;-75
2022/11/19 06:23:59;;;;;;;0.10;0.10;;;;;;;6.99;58.09;97211.34;8447770;28;20234;-75
2022/11/19 06:28:02;;;;;;;0.10;0.10;;;;;;;7.17;58.45;97230.31;8447806;28;20237;-75
2022/11/19 06:32:05;;;;;;;0.10;0.10;;;;;;;7.03;58.00;97233.47;8447872;28;20234;-75
2022/11/19 06:36:10;;;;;;;0.10;0.10;;;;;;;7.14;58.03;97244.16;8447522;28;20238;-75
2022/11/19 06:40:14;;;;;;;0.10;0.10;;;;;;;7.16;58.55;97242.34;8447501;28;20246;-75
2022/11/19 06:44:17;;;;;;;0.10;0.10;;;;;;;7.07;57.71;97245.31;8447411;28;20240;-75
2022/11/19 06:48:19;;;;;;;0.10;0.10;;;;;;;7.03;58.33;97254.06;8447317;28;20222;-75
2022/11/19 06:52:24;;;;;;;0.10;0.10;;;;;;;7.02;58.27;97255.78;8447290;28;20529;-75
2022/11/19 06:56:27;;;;;;;0.10;0.10;;;;;;;7.11;58.05;97264.88;8447229;28;20232;-75
2022/11/19 07:00:30;;;;;;;0.10;0.10;;;;;;;7.04;58.38;97277.19;8447129;28;20229;-75
2022/11/19 07:04:32;;;;;;;0.10;0.10;;;;;;;7.15;58.41;97273.31;8446778;28;20225;-75
2022/11/19 07:08:38;;;;;;;0.10;0.10;;;;;;;7.10;58.21;97282.97;8446910;28;20296;-76
2022/11/19 07:12:41;;;;;;;0.10;0.10;;;;;;;6.94;57.73;97290.47;8446439;28;20233;-75
2022/11/19 07:16:43;;;;;;;0.10;0.10;;;;;;;7.08;58.38;97297.63;8446764;28;20238;-75
2022/11/19 07:20:46;;;;;;;0.10;0.10;;;;;;;7.19;57.31;97291.13;8446537;28;20461;-75
2022/11/19 07:24:50;;;;;;;0.10;0.10;;;;;;;7.14;57.45;97294.81;8452315;28;20226;-75
2022/11/19 07:28:53;;;;;;;0.10;0.10;;;;;;;7.06;57.70;97292.53;8452942;28;20229;-76
2022/11/19 07:32:57;;;;;;;0.10;0.10;;;;;;;7.01;56.99;97287.59;8453288;28;20229;-75
2022/11/19 07:36:59;;;;;;;0.10;0.10;;;;;;;7.01;57.79;97291.91;8453398;28;20229;-75
2022/11/19 07:42:47;;;;;;;0.10;0.10;;;;;;;7.01;57.20;97294.50;8453108;28;20226;-75
2022/11/19 07:45:28;;;;;;;0.10;0.10;;;;;;;6.78;57.54;97285.13;8452861;28;20234;-75
2022/11/19 07:49:31;;;;;;;0.10;0.10;;;;;;;6.90;57.72;97296.66;8453017;28;20221;-75
2022/11/19 07:53:33;;;;;;;0.20;0.20;;;;;;;6.34;59.23;97297.97;8452871;28;20295;-75
2022/11/19 07:57:37;;;;;;;0.20;0.20;;;;;;;6.68;58.07;97294.91;8452801;28;20241;-72
2022/11/19 08:01:40;;;;;;;0.20;0.20;;;;;;;6.89;57.99;97295.81;8452589;28;20646;-75
2022/11/19 08:05:43;;;;;;;0.10;0.10;;;;;;;6.35;59.40;97299.66;8452645;28;20280;-75
2022/11/19 08:09:46;;;;;;;0.10;0.10;;;;;;;6.81;58.45;97303.00;8452819;28;20457;-74
2022/11/19 08:13:50;;;;;;;0.10;0.10;;;;;;;6.50;59.18;97306.78;8452092;28;20242;-76
2022/11/19 08:22:13;;;;;;;0.20;0.20;;;;;;;5.87;59.97;97312.47;8451987;28;20229;-75
2022/11/19 08:26:16;;;;;;;0.10;0.10;;;;;;;5.92;58.89;97314.06;8451788;28;20238;-75
2022/11/19 08:30:20;;;;;;;0.10;0.10;;;;;;;5.76;58.33;97316.34;8451295;28;20297;-75
2022/11/19 08:34:23;;;;;;;0.10;0.10;;;;;;;5.54;60.68;97319.66;8445628;28;20226;-75
2022/11/19 08:38:26;;;;;;;0.10;0.10;;;;;;;5.36;60.62;97330.56;8451437;28;20233;-74
2022/11/19 08:46:50;;;;;;;0.10;0.10;;;;;;;5.21;60.48;97325.03;8450925;28;20238;-74
2022/11/19 08:50:53;;;;;;;0.20;0.20;;;;;;;5.52;60.17;97338.56;8450642;28;20222;-75
2022/11/19 08:54:56;;;;;;;0.10;0.10;;;;;;;5.74;59.50;97342.06;8450739;28;20464;-75
2022/11/19 08:58:58;;;;;;;0.10;0.10;;;;;;;5.08;60.77;97342.56;8450484;28;20233;-75
2022/11/19 09:03:07;;;;;;;0.10;0.10;;;;;;;5.01;62.11;97343.66;8450638;28;20249;-75
2022/11/19 09:07:10;;;;;;;0.10;0.10;;;;;;;5.47;60.65;97338.72;8448527;28;20241;-75
2022/11/19 09:11:14;;;;;;;0.20;0.20;;;;;;;5.03;61.57;97333.34;8449862;28;20249;-76
2022/11/19 09:15:17;;;;;;;0.20;0.20;;;;;;;5.56;60.93;97338.44;8449971;28;20225;-75
2022/11/19 09:19:21;;;;;;;0.10;0.10;;;;;;;5.23;61.18;97342.94;8449878;28;20290;-76
2022/11/19 09:23:25;;;;;;;0.20;0.20;;;;;;;5.49;60.76;97348.06;8449671;28;20296;-75
2022/11/19 09:27:28;;;;;;;0.10;0.10;;;;;;;5.96;65.23;97354.19;8449715;28;20238;-74
2022/11/19 09:31:31;;;;;;;0.10;0.10;;;;;;;6.53;70.81;97349.53;8449519;28;20233;-74
2022/11/19 09:35:35;;;;;;;0.20;0.20;;;;;;;5.90;61.08;97362.09;8449497;28;20234;-74
2022/11/19 09:39:38;;;;;;;0.10;0.10;;;;;;;5.53;61.97;97360.81;8449230;28;20242;-74
2022/11/19 09:43:46;;;;;;;0.10;0.10;;;;;;;5.75;59.68;97366.91;8448967;28;20222;-75
2022/11/19 09:48:07;;;;;;;0.20;0.20;;;;;;;5.25;60.15;97370.28;8447957;28;20229;-75
2022/11/19 09:52:14;;;;;;;0.10;0.10;;;;;;;5.28;60.70;97370.16;8448626;28;20222;-78
2022/11/19 09:56:21;;;;;;;0.10;0.10;;;;;;;5.46;60.25;97370.44;8448411;28;20233;-75
2022/11/19 10:00:27;;;;;;;0.10;0.10;;;;;;;5.51;59.92;97378.00;8448528;28;20222;-77
2022/11/19 10:04:32;;;;;;;0.10;0.10;;;;;;;5.41;60.49;97373.16;8448311;28;20293;-75
2022/11/19 10:08:48;;;;;;;0.10;0.10;;;;;;;5.19;60.67;97374.75;8448358;28;20252;-74
2022/11/19 10:13:10;;;;;;;0.10;0.10;;;;;;;5.68;60.00;97373.13;8448096;28;20257;-74
2022/11/19 10:17:22;;;;;;;0.20;0.20;;;;;;;5.67;59.70;97374.00;8448220;28;20496;-76
2022/11/19 10:21:28;;;;;;;0.10;0.10;;;;;;;5.95;58.57;97367.94;8448197;28;20234;-74
2022/11/19 10:25:36;;;;;;;0.10;0.10;;;;;;;6.12;58.39;97365.63;8448075;28;20234;-74
2022/11/19 10:29:39;;;;;;;0.10;0.10;;;;;;;6.49;57.80;97371.97;8447810;28;20240;-76
2022/11/19 10:33:47;;;;;;;0.10;0.10;;;;;;;6.33;57.41;97369.13;8447950;28;20622;-76
2022/11/19 10:37:54;;;;;;;0.20;0.20;;;;;;;6.06;59.02;97363.28;8447571;28;20541;-75
2022/11/19 10:42:03;;;;;;;0.20;0.20;;;;;;;5.35;59.99;97369.94;8447412;28;20222;-75
2022/11/19 10:46:09;;;;;;;0.10;0.10;;;;;;;5.83;59.60;97357.19;8447253;28;20234;-75
2022/11/19 10:50:16;;;;;;;0.10;0.10;;;;;;;5.14;60.78;97341.53;8447451;28;20246;-75
2022/11/19 10:54:22;;;;;;;0.10;0.10;;;;;;;5.72;60.13;97345.59;8447468;28;20224;-75
2022/11/19 10:58:29;;;;;;;0.13;0.13;;;;;;;5.41;59.82;97338.94;8446972;28;20436;-74
2022/11/19 11:02:39;;;;;;;0.10;0.10;;;;;;;5.45;59.31;97340.53;8447363;28;20225;-75
2022/11/19 11:06:52;;;;;;;0.20;0.20;;;;;;;5.00;61.56;97331.69;8446666;28;20301;-75
2022/11/19 11:10:56;;;;;;;0.10;0.10;;;;;;;5.88;60.20;97332.16;8446446;28;20453;-75
2022/11/19 11:15:07;;;;;;;0.20;0.20;;;;;;;5.44;61.26;97337.09;8446632;28;20234;-75
2022/11/19 11:19:13;;;;;;;0.10;0.10;;;;;;;7.66;81.60;97335.59;8446768;28;20230;-75
2022/11/19 11:23:18;;;;;;;0.10;0.10;;;;;;;7.12;60.94;97330.94;8446574;28;20540;-75
2022/11/19 11:27:22;;;;;;;0.10;0.10;;;;;;;6.77;60.27;97329.75;8446615;28;20225;-71
2022/11/19 11:31:32;;;;;;;0.10;0.10;;;;;;;6.96;56.18;97328.13;8446603;28;20229;-75
2022/11/19 12:08:46;;;;;;;0.00;0.00;;;;;;;16.67;43.17;97365.41;8471169;27;1633081;-66
2022/11/19 12:30:33;;;;;;;21.43;16.90;;;;;;;16.28;43.00;97363.16;8380677;27;20553;-61
2022/11/19 12:34:49;;;;;;;19.00;13.40;;;;;;;16.86;41.45;97359.59;8365293;28;20266;-60
2022/11/19 12:39:00;;;;;;;12.73;10.00;;;;;;;16.94;41.76;97355.38;8375986;28;20236;-59
2022/11/19 12:43:09;;;;;;;16.73;12.00;;;;;;;17.09;41.28;97347.28;8375625;28;20231;-60
2022/11/19 12:47:22;;;;;;;14.02;10.38;;;;;;;16.88;41.39;97350.66;8374488;28;20410;-59
2022/11/19 12:51:35;;;;;;;12.07;9.23;;;;;;;16.66;42.30;97351.50;8375540;28;20392;-60
2022/11/19 13:08:36;;;;;;;17.70;15.93;;;;;;;9.56;47.54;97313.84;8381522;27;20570;-74
2022/11/19 13:12:43;;;;;;;15.27;13.67;;;;;;;8.93;49.06;97326.44;8375720;28;20233;-74
2022/11/19 13:16:46;;;;;;;14.57;13.07;;;;;;;7.92;51.70;97324.13;8376146;28;20240;-73
2022/11/19 13:20:50;;;;;;;14.83;13.23;;;;;;;7.40;52.95;97328.03;8375630;28;20232;-73
2022/11/19 13:24:57;;;;;;;50.03;31.23;;;;;;;7.27;54.47;97326.88;8375179;28;20225;-74
2022/11/19 13:29:07;;;;;;;12.47;11.17;;;;;;;5.68;58.34;97322.56;8375574;28;20459;-74
2022/11/19 13:33:14;;;;;;;11.97;10.70;;;;;;;5.75;58.80;97323.22;8375374;28;20286;-73
2022/11/19 13:37:23;;;;;;;13.13;11.77;;;;;;;5.75;58.66;97283.81;8375185;28;20225;-75
2022/11/19 13:41:31;;;;;;;12.07;10.53;;;;;;;5.72;58.78;97322.47;8375244;28;20406;-75
2022/11/19 13:45:34;;;;;;;13.10;11.47;;;;;;;6.20;58.41;97329.34;8375146;28;20540;-76
2022/11/19 13:49:40;;;;;;;12.43;11.10;;;;;;;5.75;59.68;97336.06;8374962;28;20233;-75
2022/11/19 13:53:44;;;;;;;14.67;12.50;;;;;;;5.55;60.12;97335.91;8374787;28;20220;-75
2022/11/19 13:57:49;;;;;;;13.43;11.43;;;;;;;5.04;61.14;97335.00;8374171;28;20228;-74
2022/11/19 14:02:05;;;;;;;12.93;10.47;;;;;;;5.14;62.33;97330.41;8374602;28;20237;-76
2022/11/19 14:06:17;;;;;;;14.30;12.20;;;;;;;5.85;59.76;97332.25;8392602;28;20252;-74
2022/11/19 14:10:23;;;;;;;13.33;11.70;;;;;;;5.73;59.62;97335.28;8407261;28;20224;-75
2022/11/19 14:28:37;;;;;;;12.33;10.57;;;;;;;4.64;62.11;97295.22;8384639;28;20229;-76
2022/11/19 14:32:43;;;;;;;11.43;10.20;;;;;;;5.51;60.13;97336.91;8384564;28;20228;-75
2022/11/19 14:36:51;;;;;;;11.30;10.10;;;;;;;5.76;59.70;97342.84;8384625;28;20228;-75
2022/11/19 14:41:03;;;;;;;13.10;10.20;;;;;;;5.77;59.53;97339.41;8383930;28;20236;-75
2022/11/19 14:45:27;;;;;;;16.90;10.83;;;;;;;7.88;87.85;97343.22;8384331;28;20432;-76
2022/11/19 14:49:33;;;;;;;13.23;9.37;;;;;;;8.67;70.08;97341.44;8379544;28;20244;-76
2022/11/19 14:53:37;;;;;;;13.37;11.70;;;;;;;8.45;55.18;97340.75;8383735;28;20228;-76
2022/11/19 14:57:41;;;;;;;13.60;11.80;;;;;;;7.14;56.49;97346.31;8384066;28;20279;-74
2022/11/19 15:01:58;;;;;;;18.17;16.27;;;;;;;6.68;56.05;97354.09;8383939;28;20554;-73
2022/11/19 15:06:05;;;;;;;16.40;13.87;;;;;;;6.70;57.65;97354.03;8383022;28;20224;-75
2022/11/19 15:10:47;;;;;;;15.70;12.10;;;;;;;6.59;57.23;97357.88;8383538;28;20224;-75
2022/11/19 15:15:04;;;;;;;11.97;10.77;;;;;;;6.13;57.88;97363.88;8383346;28;20224;-76
2022/11/19 15:19:25;;;;;;;11.17;9.77;;;;;;;5.68;59.05;97350.00;8383007;28;20225;-75
2022/11/19 15:23:34;;;;;;;10.90;9.83;;;;;;;6.22;58.74;97353.25;8383160;28;20535;-75
2022/11/19 15:27:51;;;;;;;10.73;9.63;;;;;;;6.10;58.68;97356.28;8382943;28;20239;-76
2022/11/19 15:32:06;;;;;;;13.43;11.17;;;;;;;6.23;58.84;97355.78;8381877;28;20225;-75
2022/11/19 15:36:21;;;;;;;13.83;11.90;;;;;;;6.04;59.06;97340.19;8382681;28;20233;-75
2022/11/19 15:40:28;;;;;;;12.43;11.00;;;;;;;5.59;60.38;97325.47;8382567;28;20248;-75
2022/11/19 15:44:49;;;;;;;13.00;10.90;;;;;;;6.06;58.98;97335.81;8382416;28;20228;-75
2022/11/19 15:48:57;;;;;;;13.27;11.00;;;;;;;5.74;58.73;97336.94;8382098;28;20252;-74
2022/11/19 15:53:01;;;;;;;12.67;10.97;;;;;;;5.86;58.64;97345.94;8381672;28;20248;-75
2022/11/19 15:57:14;;;;;;;12.50;10.80;;;;;;;5.95;58.48;97358.50;8382191;28;20235;-74
2022/11/19 16:01:20;;;;;;;15.37;12.47;;;;;;;5.96;59.10;97362.78;8381850;28;20224;-74
2022/11/19 16:05:24;;;;;;;13.33;11.50;;;;;;;6.02;59.12;97374.56;8381684;28;20236;-75
2022/11/19 16:09:27;;;;;;;24.00;17.77;;;;;;;5.95;59.14;97361.06;8381310;28;20224;-75
2022/11/19 16:17:51;;;;;;;16.60;13.93;;;;;;;5.92;59.65;97380.88;8381451;28;20563;-75
2022/11/19 16:21:56;;;;;;;15.70;13.17;;;;;;;5.93;59.56;97387.69;8380514;28;20408;-77
2022/11/19 16:26:01;;;;;;;16.47;13.07;;;;;;;6.04;59.76;97383.06;8381096;28;20522;-75
2022/11/19 16:30:15;;;;;;;17.30;13.10;;;;;;;6.00;59.36;97387.47;8381208;28;20232;-77
2022/11/19 16:34:21;;;;;;;16.17;13.07;;;;;;;5.60;59.30;97329.72;8380975;28;20229;-74
2022/11/19 16:38:27;;;;;;;14.00;11.63;;;;;;;5.87;59.46;97360.47;8380815;28;20217;-74
2022/11/19 16:42:31;;;;;;;14.03;11.27;;;;;;;5.83;60.03;97353.78;8380447;28;20229;-74
2022/11/19 16:46:35;;;;;;;14.53;11.67;;;;;;;6.01;59.12;97352.31;8380584;28;20507;-74
2022/11/19 16:50:38;;;;;;;14.43;11.20;;;;;;;5.60;61.08;97368.25;8380425;28;20227;-76
2022/11/19 16:54:49;;;;;;;13.07;11.00;;;;;;;5.73;59.94;97378.97;8380573;28;20231;-76
2022/11/19 16:58:53;;;;;;;13.10;11.10;;;;;;;5.74;58.87;97388.31;8380055;28;20619;-77
2022/11/19 17:02:57;;;;;;;11.57;10.30;;;;;;;5.80;59.45;97390.69;8380658;28;20229;-74
2022/11/19 17:07:00;;;;;;;13.60;11.40;;;;;;;5.78;59.25;97383.94;8380271;28;20523;-73
2022/11/19 17:15:39;;;;;;;12.13;10.17;;;;;;;5.26;60.15;97371.09;8380199;28;20228;-74
2022/11/19 17:19:43;;;;;;;13.40;11.33;;;;;;;5.77;59.79;97389.94;8380430;28;20639;-76
2022/11/19 17:23:47;;;;;;;14.97;12.20;;;;;;;5.87;58.99;97397.28;8380088;28;20224;-74
2022/11/19 17:27:52;;;;;;;14.70;13.10;;;;;;;5.89;58.99;97397.25;8379864;28;20243;-74
2022/11/19 17:31:55;;;;;;;13.33;11.33;;;;;;;5.87;59.74;97406.75;8379572;28;20235;-75
2022/11/19 17:35:59;;;;;;;17.77;14.80;;;;;;;5.93;59.12;97403.13;8379809;28;20236;-74
2022/11/19 17:40:02;;;;;;;20.87;17.00;;;;;;;5.91;59.60;97413.44;8379783;28;20426;-75
2022/11/19 17:48:29;;;;;;;13.10;11.33;;;;;;;6.01;58.96;97416.56;8379662;28;20415;-75
2022/11/19 17:52:33;;;;;;;16.27;12.80;;;;;;;5.83;59.27;97411.16;8381431;28;20229;-75
2022/11/19 17:56:36;;;;;;;18.87;13.67;;;;;;;5.88;59.37;97432.41;8385926;28;20221;-75
2022/11/19 18:00:39;;;;;;;15.10;12.70;;;;;;;5.96;58.62;97433.88;8385861;28;20228;-75
2022/11/19 18:04:42;;;;;;;18.70;15.20;;;;;;;5.34;58.84;97347.75;8385387;28;20236;-75
2022/11/19 18:08:46;;;;;;;15.37;13.63;;;;;;;5.98;59.21;97430.38;8385474;28;20426;-75
2022/11/19 18:12:49;;;;;;;15.87;12.57;;;;;;;5.90;59.40;97426.34;8385298;28;20236;-75
2022/11/19 18:16:52;;;;;;;25.77;18.90;;;;;;;5.93;58.80;97410.84;8385149;28;20233;-75
2022/11/19 18:20:55;;;;;;;16.77;13.27;;;;;;;5.98;59.08;97424.41;8384978;28;20225;-76
2022/11/19 18:25:12;;;;;;;14.87;12.97;;;;;;;5.66;58.64;97392.91;8385006;28;20227;-76
2022/11/19 18:29:15;;;;;;;16.70;13.87;;;;;;;5.93;59.09;97423.69;8384955;28;20225;-75
2022/11/19 18:33:18;;;;;;;15.77;12.73;;;;;;;5.91;59.25;97423.72;8384723;28;20233;-75
2022/11/19 18:37:22;;;;;;;15.70;12.97;;;;;;;6.03;59.00;97425.91;8384681;28;20224;-75
2022/11/19 18:41:26;;;;;;;12.90;11.40;;;;;;;5.99;58.96;97434.59;8384792;28;20540;-75
2022/11/19 18:45:29;;;;;;;14.30;11.73;;;;;;;5.86;59.34;97441.03;8384612;28;20230;-75
2022/11/19 18:49:33;;;;;;;15.87;12.43;;;;;;;5.95;58.74;97417.63;8384287;28;20232;-75
2022/11/19 18:53:36;;;;;;;13.73;12.23;;;;;;;6.04;58.48;97421.63;8384138;28;20225;-75
2022/11/19 18:57:41;;;;;;;14.70;11.77;;;;;;;5.92;58.94;97424.56;8384091;28;20233;-75
2022/11/19 19:01:43;;;;;;;13.70;11.67;;;;;;;5.69;58.69;97439.03;8384022;28;20224;-75
2022/11/19 19:05:46;;;;;;;14.20;12.17;;;;;;;5.50;59.54;97418.22;8383424;28;20447;-75
2022/11/19 19:09:49;;;;;;;14.87;12.13;;;;;;;5.62;60.09;97407.56;8383653;28;20563;-75
2022/11/19 19:13:53;;;;;;;15.40;12.73;;;;;;;5.86;59.31;97426.47;8383731;28;20373;-75
2022/11/19 19:17:57;;;;;;;20.33;14.63;;;;;;;5.77;59.15;97420.78;8383305;28;20259;-75
2022/11/19 19:22:00;;;;;;;19.13;14.50;;;;;;;5.84;58.95;97422.25;8383403;28;20409;-75
2022/11/19 19:26:03;;;;;;;19.20;15.80;;;;;;;5.97;58.28;97441.53;8383317;28;20401;-75
2022/11/19 19:30:09;;;;;;;23.33;17.30;;;;;;;6.01;58.13;97447.41;8383005;28;20465;-75
2022/11/19 19:34:12;;;;;;;16.83;14.53;;;;;;;5.88;58.02;97450.38;8383077;28;20236;-75
2022/11/19 19:38:15;;;;;;;15.30;13.27;;;;;;;5.88;57.47;97452.94;8382934;28;20236;-75
2022/11/19 19:42:17;;;;;;;18.23;14.17;;;;;;;5.70;57.19;97451.00;8382675;28;20228;-75
2022/11/19 19:46:23;;;;;;;29.10;18.70;;;;;;;5.98;57.40;97457.81;8382654;28;20287;-75
2022/11/19 19:50:26;;;;;;;44.87;25.17;;;;;;;5.72;57.63;97454.34;8382273;28;20236;-75
2022/11/19 19:54:28;;;;;;;31.50;19.17;;;;;;;5.77;57.52;97456.75;8382363;28;20543;-75
2022/11/19 19:58:31;;;;;;;14.93;11.97;;;;;;;8.66;92.32;97445.56;8381836;28;20225;-75
2022/11/19 20:02:35;;;;;;;17.17;12.70;;;;;;;10.72;61.56;97451.06;8382112;28;20233;-76
2022/11/19 20:06:40;;;;;;;13.97;11.00;;;;;;;10.28;51.05;97440.41;8381578;28;20225;-75
2022/11/19 20:10:43;;;;;;;14.50;12.03;;;;;;;7.66;52.77;97459.31;8382084;28;20233;-78
2022/11/19 20:14:46;;;;;;;13.10;11.77;;;;;;;7.33;53.25;97468.31;8381521;28;20238;-77
2022/11/19 20:18:51;;;;;;;14.57;12.30;;;;;;;7.02;53.86;97466.06;8381763;28;20225;-78
2022/11/19 20:22:54;;;;;;;15.00;12.20;;;;;;;6.78;55.33;97473.81;8381171;28;20232;-78
2022/11/19 20:26:57;;;;;;;17.20;14.10;;;;;;;6.53;55.32;97457.59;8381143;28;20228;-79
2022/11/19 20:31:04;;;;;;;13.63;11.87;;;;;;;6.20;56.06;97457.91;8381276;28;20563;-78
2022/11/19 20:35:08;;;;;;;16.30;13.10;;;;;;;6.06;55.82;97459.22;8381214;28;20228;-79
2022/11/19 20:39:11;;;;;;;23.43;16.53;;;;;;;6.09;57.10;97468.53;8381031;28;20532;-79
2022/11/19 20:47:34;;;;;;;20.50;16.37;;;;;;;5.90;56.59;97475.19;8380773;28;20233;-78
2022/11/19 20:51:38;;;;;;;17.07;14.23;;;;;;;5.82;56.64;97467.72;8380538;28;20229;-79
2022/11/19 20:55:41;;;;;;;14.23;11.97;;;;;;;5.71;57.42;97473.19;8380549;28;20244;-78
2022/11/19 21:00:04;;;;;;;16.17;12.43;;;;;;;5.77;56.27;97461.88;8380098;28;20466;-79
2022/11/19 21:04:07;;;;;;;16.93;14.17;;;;;;;5.53;57.73;97461.81;8380245;28;20278;-78
2022/11/19 21:08:12;;;;;;;15.23;12.60;;;;;;;5.77;56.86;97459.31;8380190;28;20233;-78
2022/11/19 21:12:15;;;;;;;17.23;14.40;;;;;;;5.48;57.97;97454.25;8380410;28;20398;-78
2022/11/19 21:16:20;;;;;;;16.23;13.47;;;;;;;5.22;58.58;97473.06;8380475;28;20232;-78
2022/11/19 21:20:23;;;;;;;20.40;15.97;;;;;;;5.72;56.82;97463.78;8380376;28;20220;-78